createdAt,value
2023-01-23T00:00:48.717Z,71.17
2023-01-23T00:01:48.853Z,71.36
2023-01-23T00:02:55.989Z,71.29
2023-01-23T00:03:49.169Z,71.60
2023-01-23T00:04:49.279Z,71.72
2023-01-23T00:05:49.372Z,71.79
2023-01-23T00:06:49.530Z,71.91
2023-01-23T00:07:49.636Z,71.91
2023-01-23T00:08:49.797Z,71.91
2023-01-23T00:09:49.825Z,71.79
2023-01-23T00:10:49.978Z,71.29
2023-01-23T00:11:50.143Z,71.91
2023-01-23T00:12:50.171Z,71.29
2023-01-23T00:13:50.381Z,71.36
2023-01-23T00:14:50.467Z,71.54
2023-01-23T00:15:50.613Z,70.93
2023-01-23T00:16:50.674Z,71.48
2023-01-23T00:17:50.794Z,71.17
2023-01-23T00:18:50.962Z,71.36
2023-01-23T00:19:51.054Z,71.60
2023-01-23T00:20:51.144Z,71.29
2023-01-23T00:21:51.247Z,71.72
2023-01-23T00:22:51.373Z,71.85
2023-01-23T00:23:51.580Z,71.97
2023-01-23T00:24:51.559Z,72.10
2023-01-23T00:25:51.702Z,72.10
2023-01-23T00:26:51.845Z,71.79
2023-01-23T00:27:51.944Z,72.03
2023-01-23T00:28:52.111Z,71.97
2023-01-23T00:29:52.167Z,72.03
2023-01-23T00:30:52.368Z,72.03
2023-01-23T00:31:52.506Z,72.03
2023-01-23T00:32:52.510Z,71.97
2023-01-23T00:33:52.639Z,72.03
2023-01-23T00:34:52.739Z,72.10
2023-01-23T00:35:52.828Z,72.10
2023-01-23T00:36:52.998Z,72.03
2023-01-23T00:37:53.172Z,72.41
2023-01-23T00:38:53.208Z,72.28
2023-01-23T00:39:53.327Z,72.53
2023-01-23T00:40:53.436Z,72.41
2023-01-23T00:41:53.526Z,72.47
2023-01-23T00:42:53.635Z,72.66
2023-01-23T00:43:53.784Z,72.66
2023-01-23T00:44:53.869Z,72.60
2023-01-23T00:45:54.023Z,72.66
2023-01-23T00:46:54.113Z,72.85
2023-01-23T00:47:54.203Z,73.23
2023-01-23T00:48:54.396Z,73.04
2023-01-23T00:49:54.492Z,72.79
2023-01-23T00:50:54.708Z,72.72
2023-01-23T00:51:54.741Z,72.66
2023-01-23T00:52:54.883Z,72.47
2023-01-23T00:53:55.051Z,73.04
2023-01-23T00:54:55.170Z,73.17
2023-01-23T00:55:55.263Z,72.79
2023-01-23T00:56:55.371Z,73.36
2023-01-23T00:57:55.483Z,73.17
2023-01-23T00:58:55.636Z,73.23
2023-01-23T00:59:55.680Z,73.23
2023-01-23T01:00:55.801Z,73.30
2023-01-23T01:01:55.924Z,73.43
2023-01-23T01:02:56.056Z,73.36
2023-01-23T01:03:56.177Z,73.62
2023-01-23T01:04:56.249Z,73.69
2023-01-23T01:05:56.360Z,73.69
2023-01-23T01:06:56.460Z,74.08
2023-01-23T01:07:56.564Z,74.08
2023-01-23T01:08:56.767Z,73.95
2023-01-23T01:09:56.810Z,74.01
2023-01-23T01:10:56.907Z,74.08
2023-01-23T01:11:57.045Z,74.28
2023-01-23T01:12:57.197Z,74.28
2023-01-23T01:13:57.349Z,74.34
2023-01-23T01:14:57.485Z,74.14
2023-01-23T01:15:57.606Z,74.28
2023-01-23T01:16:57.666Z,73.82
2023-01-23T01:17:57.760Z,73.75
2023-01-23T01:18:57.863Z,73.56
2023-01-23T01:19:57.977Z,74.21
2023-01-23T01:20:58.087Z,74.28
2023-01-23T01:21:58.164Z,74.41
2023-01-23T01:22:58.285Z,74.21
2023-01-23T01:23:58.448Z,74.61
2023-01-23T01:24:58.488Z,74.28
2023-01-23T01:25:58.570Z,74.74
2023-01-23T01:26:58.730Z,74.48
2023-01-23T01:27:58.834Z,74.81
2023-01-23T01:28:58.986Z,74.74
2023-01-23T01:29:59.019Z,74.88
2023-01-23T01:30:59.297Z,74.68
2023-01-23T01:31:59.347Z,74.54
2023-01-23T01:32:59.446Z,74.54
2023-01-23T01:33:59.530Z,74.88
2023-01-23T01:34:59.647Z,74.48
2023-01-23T01:35:59.748Z,74.61
2023-01-23T01:36:59.847Z,74.88
2023-01-23T01:38:00.006Z,74.81
2023-01-23T01:39:00.110Z,75.28
2023-01-23T01:40:00.234Z,74.74
2023-01-23T01:41:00.337Z,74.88
2023-01-23T01:42:00.493Z,75.21
2023-01-23T01:43:00.675Z,75.08
2023-01-23T01:44:00.705Z,75.01
2023-01-23T01:45:00.803Z,75.15
2023-01-23T01:46:00.968Z,75.56
2023-01-23T01:47:01.089Z,75.35
2023-01-23T01:48:01.209Z,75.42
2023-01-23T01:49:01.367Z,75.28
2023-01-23T01:50:01.421Z,75.69
2023-01-23T01:51:01.537Z,75.28
2023-01-23T01:52:01.620Z,75.21
2023-01-23T01:53:01.765Z,75.08
2023-01-23T01:54:01.863Z,75.28
2023-01-23T01:55:01.968Z,75.21
2023-01-23T01:56:02.067Z,75.28
2023-01-23T01:57:02.196Z,75.15
2023-01-23T01:58:02.338Z,75.28
2023-01-23T01:59:02.421Z,75.49
2023-01-23T02:00:02.536Z,75.69
2023-01-23T02:01:02.686Z,75.69
2023-01-23T02:02:02.784Z,75.62
2023-01-23T02:03:02.889Z,75.42
2023-01-23T02:04:03.008Z,75.62
2023-01-23T02:05:03.085Z,75.69
2023-01-23T02:06:03.199Z,75.62
2023-01-23T02:07:03.280Z,75.28
2023-01-23T02:08:03.473Z,75.90
2023-01-23T02:09:03.581Z,75.69
2023-01-23T02:10:03.684Z,75.83
2023-01-23T02:11:03.794Z,75.56
2023-01-23T02:12:03.874Z,75.15
2023-01-23T02:13:04.006Z,75.49
2023-01-23T02:14:04.160Z,75.49
2023-01-23T02:15:04.207Z,75.69
2023-01-23T02:16:04.375Z,76.18
2023-01-23T02:17:04.463Z,76.11
2023-01-23T02:18:04.643Z,75.83
2023-01-23T02:19:04.698Z,76.18
2023-01-23T02:20:04.826Z,76.11
2023-01-23T02:21:04.930Z,76.25
2023-01-23T02:22:05.042Z,76.18
2023-01-23T02:23:05.172Z,76.11
2023-01-23T02:24:05.304Z,75.83
2023-01-23T02:25:05.382Z,76.32
2023-01-23T02:26:05.490Z,76.11
2023-01-23T02:27:05.590Z,75.69
2023-01-23T02:28:08.309Z,75.90
2023-01-23T02:29:05.783Z,76.11
2023-01-23T02:30:05.956Z,76.53
2023-01-23T02:31:06.100Z,76.60
2023-01-23T02:32:06.202Z,75.97
2023-01-23T02:33:06.341Z,76.18
2023-01-23T02:34:06.418Z,75.83
2023-01-23T02:35:06.569Z,76.39
2023-01-23T02:36:06.656Z,76.11
2023-01-23T02:37:06.809Z,75.90
2023-01-23T02:38:07.009Z,76.53
2023-01-23T02:39:07.125Z,76.39
2023-01-23T02:40:07.168Z,76.25
2023-01-23T02:41:07.274Z,76.39
2023-01-23T02:42:07.389Z,76.60
2023-01-23T02:43:07.542Z,76.46
2023-01-23T02:44:07.583Z,76.67
2023-01-23T02:45:07.673Z,75.90
2023-01-23T02:46:07.869Z,76.53
2023-01-23T02:47:07.990Z,76.39
2023-01-23T02:48:08.121Z,76.74
2023-01-23T02:49:08.261Z,76.04
2023-01-23T02:50:08.374Z,76.60
2023-01-23T02:51:08.524Z,76.18
2023-01-23T02:52:08.616Z,76.32
2023-01-23T02:53:08.721Z,76.25
2023-01-23T02:54:08.856Z,76.18
2023-01-23T02:55:08.989Z,76.32
2023-01-23T02:56:09.081Z,76.25
2023-01-23T02:57:09.183Z,76.18
2023-01-23T02:58:09.271Z,75.62
2023-01-23T02:59:09.480Z,76.04
2023-01-23T03:00:09.566Z,76.25
2023-01-23T03:01:09.766Z,76.11
2023-01-23T03:02:09.875Z,76.39
2023-01-23T03:03:09.934Z,76.18
2023-01-23T03:04:10.099Z,75.97
2023-01-23T03:05:10.158Z,76.25
2023-01-23T03:06:10.270Z,76.67
2023-01-23T03:07:10.381Z,76.25
2023-01-23T03:08:10.513Z,76.46
2023-01-23T03:09:10.640Z,76.25
2023-01-23T03:10:10.825Z,76.60
2023-01-23T03:11:10.855Z,76.25
2023-01-23T03:12:10.973Z,76.39
2023-01-23T03:13:13.722Z,76.67
2023-01-23T03:14:11.235Z,76.53
2023-01-23T03:15:11.349Z,76.53
2023-01-23T03:16:11.453Z,76.53
2023-01-23T03:17:11.542Z,76.39
2023-01-23T03:18:11.653Z,76.53
2023-01-23T03:19:11.812Z,76.53
2023-01-23T03:20:11.863Z,76.46
2023-01-23T03:21:11.959Z,76.46
2023-01-23T03:22:12.077Z,76.53
2023-01-23T03:23:12.155Z,76.53
2023-01-23T03:24:12.399Z,76.60
2023-01-23T03:25:12.379Z,76.60
2023-01-23T03:26:12.510Z,76.67
2023-01-23T03:27:12.668Z,76.39
2023-01-23T03:28:12.781Z,76.32
2023-01-23T03:29:12.918Z,76.60
2023-01-23T03:30:13.017Z,76.67
2023-01-23T03:31:13.137Z,76.81
2023-01-23T03:32:13.306Z,76.74
2023-01-23T03:33:13.338Z,76.88
2023-01-23T03:34:13.475Z,77.09
2023-01-23T03:35:13.556Z,77.31
2023-01-23T03:36:13.705Z,77.09
2023-01-23T03:37:13.840Z,77.09
2023-01-23T03:38:13.946Z,77.09
2023-01-23T03:39:14.051Z,76.95
2023-01-23T03:40:14.183Z,77.45
2023-01-23T03:41:14.263Z,77.45
2023-01-23T03:42:14.416Z,77.02
2023-01-23T03:43:14.564Z,77.31
2023-01-23T03:44:14.692Z,77.02
2023-01-23T03:45:14.966Z,77.45
2023-01-23T03:46:14.892Z,77.23
2023-01-23T03:47:15.046Z,77.09
2023-01-23T03:48:15.169Z,77.09
2023-01-23T03:49:15.275Z,77.31
2023-01-23T03:50:15.378Z,77.09
2023-01-23T03:51:15.552Z,77.31
2023-01-23T03:52:15.569Z,77.38
2023-01-23T03:53:15.688Z,77.74
2023-01-23T03:54:15.812Z,77.23
2023-01-23T03:55:15.891Z,77.52
2023-01-23T03:56:15.981Z,77.74
2023-01-23T03:57:16.098Z,77.88
2023-01-23T03:58:16.194Z,77.81
2023-01-23T03:59:16.301Z,77.52
2023-01-23T04:00:16.431Z,78.03
2023-01-23T04:01:16.640Z,77.96
2023-01-23T04:02:16.655Z,77.96
2023-01-23T04:03:16.789Z,77.67
2023-01-23T04:04:16.900Z,77.74
2023-01-23T04:05:17.014Z,77.88
2023-01-23T04:06:17.352Z,77.74
2023-01-23T04:07:17.250Z,77.74
2023-01-23T04:08:17.354Z,77.59
2023-01-23T04:09:17.463Z,78.10
2023-01-23T04:10:17.919Z,77.52
2023-01-23T04:11:17.714Z,77.74
2023-01-23T04:12:17.803Z,77.59
2023-01-23T04:13:17.928Z,77.96
2023-01-23T04:14:17.993Z,77.38
2023-01-23T04:15:18.144Z,77.52
2023-01-23T04:16:18.288Z,77.31
2023-01-23T04:17:18.385Z,77.31
2023-01-23T04:18:18.480Z,77.52
2023-01-23T04:19:18.582Z,77.38
2023-01-23T04:20:18.947Z,77.52
2023-01-23T04:21:18.799Z,77.45
2023-01-23T04:22:18.944Z,77.45
2023-01-23T04:23:19.039Z,77.38
2023-01-23T04:24:19.189Z,77.45
2023-01-23T04:25:19.288Z,77.16
2023-01-23T04:26:19.437Z,77.16
2023-01-23T04:27:19.537Z,77.38
2023-01-23T04:28:19.646Z,77.16
2023-01-23T04:29:19.746Z,77.45
2023-01-23T04:30:20.221Z,77.81
2023-01-23T04:31:20.119Z,77.38
2023-01-23T04:32:20.066Z,77.38
2023-01-23T04:33:20.179Z,77.31
2023-01-23T04:34:20.305Z,77.67
2023-01-23T04:35:20.482Z,78.10
2023-01-23T04:36:20.581Z,77.81
2023-01-23T04:37:20.683Z,77.74
2023-01-23T04:38:20.758Z,77.81
2023-01-23T04:39:20.928Z,77.96
2023-01-23T04:40:21.263Z,77.88
2023-01-23T04:41:21.196Z,78.10
2023-01-23T04:42:21.295Z,77.88
2023-01-23T04:43:21.451Z,77.67
2023-01-23T04:44:21.539Z,78.03
2023-01-23T04:45:21.691Z,77.96
2023-01-23T04:46:21.878Z,78.03
2023-01-23T04:47:21.926Z,77.96
2023-01-23T04:48:22.024Z,77.74
2023-01-23T04:49:22.133Z,77.74
2023-01-23T04:50:22.317Z,77.31
2023-01-23T04:51:22.456Z,77.67
2023-01-23T04:52:22.471Z,77.31
2023-01-23T04:53:22.576Z,77.74
2023-01-23T04:54:22.701Z,77.59
2023-01-23T04:55:22.787Z,77.74
2023-01-23T04:56:22.909Z,77.59
2023-01-23T04:57:23.037Z,77.52
2023-01-23T04:58:23.129Z,77.38
2023-01-23T04:59:23.243Z,77.23
2023-01-23T05:00:23.320Z,77.16
2023-01-23T05:01:23.533Z,77.16
2023-01-23T05:02:23.722Z,77.38
2023-01-23T05:03:23.717Z,77.31
2023-01-23T05:04:23.814Z,77.52
2023-01-23T05:05:23.977Z,77.52
2023-01-23T05:06:24.065Z,77.38
2023-01-23T05:07:24.237Z,77.52
2023-01-23T05:08:24.317Z,77.23
2023-01-23T05:09:24.473Z,77.52
2023-01-23T05:10:24.603Z,77.38
2023-01-23T05:11:24.693Z,77.09
2023-01-23T05:12:24.807Z,77.31
2023-01-23T05:13:24.897Z,76.88
2023-01-23T05:14:25.042Z,77.09
2023-01-23T05:15:25.161Z,77.16
2023-01-23T05:16:25.269Z,77.45
2023-01-23T05:17:25.368Z,77.31
2023-01-23T05:18:25.451Z,77.02
2023-01-23T05:19:25.609Z,77.16
2023-01-23T05:20:25.714Z,76.88
2023-01-23T05:21:25.819Z,76.74
2023-01-23T05:22:25.940Z,77.16
2023-01-23T05:23:26.039Z,76.67
2023-01-23T05:24:26.198Z,76.88
2023-01-23T05:25:26.263Z,77.02
2023-01-23T05:26:33.434Z,76.95
2023-01-23T05:27:26.529Z,76.88
2023-01-23T05:28:26.603Z,76.60
2023-01-23T05:29:26.751Z,76.88
2023-01-23T05:30:26.894Z,77.02
2023-01-23T05:31:27.043Z,76.88
2023-01-23T05:32:27.168Z,76.88
2023-01-23T05:33:27.213Z,76.88
2023-01-23T05:34:27.332Z,76.67
2023-01-23T05:35:27.441Z,76.74
2023-01-23T05:36:27.511Z,76.88
2023-01-23T05:37:27.814Z,76.81
2023-01-23T05:38:27.822Z,76.11
2023-01-23T05:39:27.892Z,76.74
2023-01-23T05:40:28.041Z,76.25
2023-01-23T05:41:28.191Z,76.18
2023-01-23T05:42:28.308Z,76.67
2023-01-23T05:43:28.393Z,76.74
2023-01-23T05:44:28.533Z,76.32
2023-01-23T05:45:28.688Z,76.46
2023-01-23T05:46:28.815Z,76.25
2023-01-23T05:47:28.916Z,76.53
2023-01-23T05:48:29.026Z,76.32
2023-01-23T05:49:29.107Z,76.46
2023-01-23T05:50:29.263Z,76.53
2023-01-23T05:51:29.346Z,76.60
2023-01-23T05:52:29.522Z,76.74
2023-01-23T05:53:29.608Z,76.53
2023-01-23T05:54:29.755Z,76.53
2023-01-23T05:55:29.863Z,76.88
2023-01-23T05:56:29.965Z,77.02
2023-01-23T05:57:30.065Z,76.53
2023-01-23T05:58:30.164Z,77.16
2023-01-23T05:59:30.298Z,77.16
2023-01-23T06:00:30.373Z,77.31
2023-01-23T06:01:30.521Z,77.09
2023-01-23T06:02:30.745Z,77.02
2023-01-23T06:03:30.831Z,77.02
2023-01-23T06:04:30.906Z,77.02
2023-01-23T06:05:31.031Z,77.16
2023-01-23T06:06:31.187Z,76.81
2023-01-23T06:07:31.317Z,76.88
2023-01-23T06:08:31.419Z,77.52
2023-01-23T06:09:31.502Z,77.16
2023-01-23T06:10:31.643Z,76.95
2023-01-23T06:11:31.782Z,77.02
2023-01-23T06:12:31.929Z,77.31
2023-01-23T06:13:32.087Z,77.23
2023-01-23T06:14:32.118Z,77.09
2023-01-23T06:15:32.360Z,77.02
2023-01-23T06:16:32.436Z,77.16
2023-01-23T06:17:32.586Z,77.02
2023-01-23T06:18:32.683Z,76.95
2023-01-23T06:19:32.767Z,77.16
2023-01-23T06:20:32.898Z,77.31
2023-01-23T06:21:33.038Z,77.23
2023-01-23T06:22:33.229Z,76.95
2023-01-23T06:23:33.296Z,77.38
2023-01-23T06:24:33.470Z,77.16
2023-01-23T06:25:33.585Z,77.09
2023-01-23T06:26:33.723Z,77.23
2023-01-23T06:27:33.881Z,77.31
2023-01-23T06:28:33.983Z,77.09
2023-01-23T06:29:34.112Z,77.16
2023-01-23T06:30:34.274Z,77.16
2023-01-23T06:31:34.515Z,77.09
2023-01-23T06:32:34.511Z,77.38
2023-01-23T06:33:34.624Z,77.23
2023-01-23T06:34:34.716Z,77.16
2023-01-23T06:35:34.851Z,77.31
2023-01-23T06:36:34.949Z,77.16
2023-01-23T06:37:35.124Z,77.23
2023-01-23T06:38:35.190Z,77.02
2023-01-23T06:39:35.352Z,77.67
2023-01-23T06:40:35.492Z,77.45
2023-01-23T06:41:35.638Z,77.23
2023-01-23T06:42:35.775Z,76.95
2023-01-23T06:43:35.862Z,77.31
2023-01-23T06:44:36.005Z,77.09
2023-01-23T06:45:36.157Z,76.81
2023-01-23T06:46:36.359Z,77.02
2023-01-23T06:47:36.393Z,77.02
2023-01-23T06:48:36.476Z,77.09
2023-01-23T06:49:36.566Z,76.67
2023-01-23T06:50:36.705Z,76.88
2023-01-23T06:51:36.845Z,76.74
2023-01-23T06:52:37.005Z,76.88
2023-01-23T06:53:37.096Z,76.67
2023-01-23T06:54:37.242Z,76.88
2023-01-23T06:55:37.376Z,76.74
2023-01-23T06:56:37.540Z,76.88
2023-01-23T06:57:37.674Z,77.09
2023-01-23T06:58:37.745Z,76.67
2023-01-23T06:59:37.893Z,76.74
2023-01-23T07:00:38.033Z,76.46
2023-01-23T07:01:38.216Z,76.88
2023-01-23T07:02:38.352Z,76.81
2023-01-23T07:03:38.401Z,76.67
2023-01-23T07:04:38.523Z,77.02
2023-01-23T07:05:38.639Z,77.02
2023-01-23T07:06:38.779Z,76.81
2023-01-23T07:07:38.939Z,76.88
2023-01-23T07:08:39.030Z,76.74
2023-01-23T07:09:39.170Z,76.81
2023-01-23T07:10:39.313Z,77.09
2023-01-23T07:11:39.459Z,77.09
2023-01-23T07:12:39.630Z,77.52
2023-01-23T07:13:39.707Z,76.67
2023-01-23T07:14:39.868Z,77.09
2023-01-23T07:15:41.183Z,76.88
2023-01-23T07:16:40.098Z,77.09
2023-01-23T07:17:40.249Z,77.02
2023-01-23T07:18:40.345Z,76.88
2023-01-23T07:19:40.480Z,76.74
2023-01-23T07:20:40.629Z,77.16
2023-01-23T07:21:40.782Z,77.09
2023-01-23T07:22:40.907Z,76.95
2023-01-23T07:23:41.009Z,77.02
2023-01-23T07:24:41.094Z,76.95
2023-01-23T07:25:41.233Z,76.95
2023-01-23T07:26:41.334Z,77.16
2023-01-23T07:27:41.485Z,77.09
2023-01-23T07:28:41.609Z,77.16
2023-01-23T07:29:41.701Z,77.16
2023-01-23T07:30:41.851Z,77.02
2023-01-23T07:31:42.046Z,77.09
2023-01-23T07:32:50.633Z,77.02
2023-01-23T07:33:42.247Z,77.23
2023-01-23T07:34:42.319Z,77.02
2023-01-23T07:35:42.451Z,77.02
2023-01-23T07:36:42.580Z,76.95
2023-01-23T07:37:42.748Z,76.67
2023-01-23T07:38:42.837Z,76.81
2023-01-23T07:39:42.917Z,77.09
2023-01-23T07:40:43.066Z,76.67
2023-01-23T07:41:46.064Z,76.74
2023-01-23T07:42:43.327Z,76.60
2023-01-23T07:43:43.418Z,76.67
2023-01-23T07:44:43.566Z,76.53
2023-01-23T07:45:43.667Z,76.88
2023-01-23T07:46:43.860Z,76.88
2023-01-23T07:47:45.639Z,76.53
2023-01-23T07:48:44.026Z,76.67
2023-01-23T07:49:44.180Z,76.88
2023-01-23T07:50:44.273Z,76.67
2023-01-23T07:51:44.415Z,76.53
2023-01-23T07:52:44.573Z,76.46
2023-01-23T07:53:44.657Z,76.46
2023-01-23T07:54:44.799Z,76.39
2023-01-23T07:55:44.964Z,76.39
2023-01-23T07:56:45.054Z,76.53
2023-01-23T07:57:45.220Z,76.46
2023-01-23T07:58:45.297Z,76.46
2023-01-23T07:59:45.448Z,76.67
2023-01-23T08:00:45.592Z,76.60
2023-01-23T08:01:45.776Z,76.60
2023-01-23T08:02:45.868Z,76.74
2023-01-23T08:03:46.038Z,76.74
2023-01-23T08:04:46.161Z,76.81
2023-01-23T08:05:46.252Z,77.09
2023-01-23T08:06:46.419Z,76.88
2023-01-23T08:07:46.537Z,77.02
2023-01-23T08:08:46.620Z,77.02
2023-01-23T08:09:46.769Z,77.23
2023-01-23T08:10:46.908Z,76.88
2023-01-23T08:11:47.127Z,76.95
2023-01-23T08:12:47.166Z,77.45
2023-01-23T08:13:47.258Z,77.09
2023-01-23T08:14:47.403Z,77.09
2023-01-23T08:15:47.575Z,77.31
2023-01-23T08:16:47.686Z,77.16
2023-01-23T08:17:47.804Z,77.23
2023-01-23T08:18:47.910Z,77.23
2023-01-23T08:19:47.975Z,77.31
2023-01-23T08:20:48.124Z,77.74
2023-01-23T08:21:48.274Z,77.45
2023-01-23T08:22:48.364Z,77.23
2023-01-23T08:23:48.529Z,77.38
2023-01-23T08:24:48.616Z,77.38
2023-01-23T08:25:50.034Z,77.02
2023-01-23T08:26:48.884Z,77.38
2023-01-23T08:27:48.987Z,77.16
2023-01-23T08:28:49.084Z,77.38
2023-01-23T08:29:49.184Z,77.16
2023-01-23T08:30:49.330Z,77.38
2023-01-23T08:31:49.601Z,77.38
2023-01-23T08:32:49.514Z,77.45
2023-01-23T08:33:49.686Z,77.31
2023-01-23T08:34:49.761Z,77.67
2023-01-23T08:35:49.899Z,77.16
2023-01-23T08:36:50.059Z,76.95
2023-01-23T08:37:50.139Z,77.09
2023-01-23T08:38:50.319Z,76.88
2023-01-23T08:39:50.396Z,77.09
2023-01-23T08:40:50.557Z,76.67
2023-01-23T08:41:50.663Z,76.67
2023-01-23T08:42:50.737Z,76.88
2023-01-23T08:43:50.870Z,76.81
2023-01-23T08:44:50.941Z,76.39
2023-01-23T08:45:51.155Z,76.74
2023-01-23T08:46:51.206Z,76.60
2023-01-23T08:47:51.283Z,76.25
2023-01-23T08:48:51.423Z,76.74
2023-01-23T08:49:51.576Z,76.32
2023-01-23T08:50:51.732Z,76.53
2023-01-23T08:51:51.805Z,76.32
2023-01-23T08:52:51.914Z,76.67
2023-01-23T08:53:52.005Z,76.11
2023-01-23T08:54:52.153Z,75.76
2023-01-23T08:55:52.303Z,76.18
2023-01-23T08:56:52.490Z,76.11
2023-01-23T08:57:52.492Z,75.83
2023-01-23T08:58:52.645Z,76.25
2023-01-23T08:59:52.749Z,75.90
2023-01-23T09:00:52.904Z,75.62
2023-01-23T09:01:53.061Z,75.28
2023-01-23T09:02:53.143Z,75.49
2023-01-23T09:03:53.260Z,75.56
2023-01-23T09:04:53.341Z,75.69
2023-01-23T09:05:53.500Z,75.35
2023-01-23T09:06:53.652Z,75.49
2023-01-23T09:07:53.738Z,75.35
2023-01-23T09:08:53.838Z,75.01
2023-01-23T09:09:53.976Z,75.28
2023-01-23T09:10:54.129Z,75.35
2023-01-23T09:11:54.266Z,75.01
2023-01-23T09:12:54.373Z,75.21
2023-01-23T09:13:54.569Z,75.42
2023-01-23T09:14:54.623Z,75.15
2023-01-23T09:15:54.758Z,75.62
2023-01-23T09:16:54.977Z,75.21
2023-01-23T09:17:55.006Z,75.49
2023-01-23T09:18:55.161Z,75.35
2023-01-23T09:19:55.319Z,75.56
2023-01-23T09:20:55.449Z,75.28
2023-01-23T09:21:55.524Z,75.56
2023-01-23T09:22:55.636Z,75.08
2023-01-23T09:23:55.727Z,75.08
2023-01-23T09:24:55.866Z,75.49
2023-01-23T09:25:56.005Z,75.49
2023-01-23T09:26:56.172Z,75.35
2023-01-23T09:27:56.282Z,75.42
2023-01-23T09:28:56.378Z,75.56
2023-01-23T09:29:56.516Z,75.21
2023-01-23T09:30:56.745Z,75.08
2023-01-23T09:31:56.833Z,75.35
2023-01-23T09:32:56.910Z,75.42
2023-01-23T09:33:57.054Z,75.42
2023-01-23T09:34:57.204Z,75.49
2023-01-23T09:35:57.352Z,75.35
2023-01-23T09:36:57.476Z,75.01
2023-01-23T09:37:58.835Z,74.81
2023-01-23T09:38:57.669Z,75.08
2023-01-23T09:39:57.772Z,74.68
2023-01-23T09:40:58.032Z,75.15
2023-01-23T09:41:58.030Z,74.68
2023-01-23T09:42:58.117Z,74.74
2023-01-23T09:43:58.217Z,74.94
2023-01-23T09:44:58.367Z,75.15
2023-01-23T09:45:58.557Z,74.94
2023-01-23T09:46:58.566Z,74.94
2023-01-23T09:47:58.728Z,74.94
2023-01-23T09:48:58.851Z,75.01
2023-01-23T09:49:58.935Z,74.41
2023-01-23T09:50:59.059Z,74.74
2023-01-23T09:51:59.188Z,74.61
2023-01-23T09:52:59.287Z,74.68
2023-01-23T09:53:59.385Z,74.68
2023-01-23T09:54:59.533Z,74.61
2023-01-23T09:55:59.632Z,74.74
2023-01-23T09:56:59.752Z,74.34
2023-01-23T09:57:59.842Z,74.68
2023-01-23T09:58:59.995Z,74.48
2023-01-23T10:00:01.008Z,74.74
2023-01-23T10:01:00.261Z,74.81
2023-01-23T10:02:00.496Z,74.41
2023-01-23T10:03:00.444Z,74.34
2023-01-23T10:04:00.601Z,74.14
2023-01-23T10:05:00.691Z,74.34
2023-01-23T10:06:00.826Z,74.54
2023-01-23T10:07:00.995Z,74.34
2023-01-23T10:08:01.058Z,74.14
2023-01-23T10:09:01.208Z,74.28
2023-01-23T10:10:01.345Z,74.48
2023-01-23T10:11:01.460Z,74.14
2023-01-23T10:12:01.626Z,74.08
2023-01-23T10:13:01.724Z,73.88
2023-01-23T10:14:01.855Z,73.75
2023-01-23T10:15:02.007Z,73.95
2023-01-23T10:16:02.189Z,73.43
2023-01-23T10:17:02.305Z,73.23
2023-01-23T10:18:02.366Z,73.30
2023-01-23T10:19:02.504Z,73.04
2023-01-23T10:20:02.656Z,73.23
2023-01-23T10:21:02.836Z,73.04
2023-01-23T10:22:02.907Z,72.66
2023-01-23T10:23:03.054Z,72.79
2023-01-23T10:24:03.197Z,72.66
2023-01-23T10:25:03.339Z,72.60
2023-01-23T10:26:03.520Z,72.53
2023-01-23T10:27:03.599Z,72.79
2023-01-23T10:28:03.731Z,73.04
2023-01-23T10:29:03.882Z,73.17
2023-01-23T10:30:03.990Z,72.98
2023-01-23T10:31:04.171Z,73.17
2023-01-23T10:32:04.241Z,73.36
2023-01-23T10:33:04.383Z,73.30
2023-01-23T10:34:05.438Z,73.62
2023-01-23T10:35:04.590Z,73.43
2023-01-23T10:36:04.729Z,73.36
2023-01-23T10:37:04.823Z,73.04
2023-01-23T10:38:04.983Z,73.69
2023-01-23T10:39:05.113Z,73.43
2023-01-23T10:40:05.225Z,73.30
2023-01-23T10:41:05.337Z,73.49
2023-01-23T10:42:05.424Z,73.75
2023-01-23T10:43:05.587Z,74.14
2023-01-23T10:44:05.668Z,73.49
2023-01-23T10:45:05.828Z,73.82
2023-01-23T10:46:06.014Z,73.82
2023-01-23T10:47:06.020Z,73.95
2023-01-23T10:48:06.419Z,73.75
2023-01-23T10:49:06.331Z,73.69
2023-01-23T10:50:06.437Z,73.56
2023-01-23T10:51:06.617Z,73.75
2023-01-23T10:52:06.679Z,74.01
2023-01-23T10:53:06.856Z,73.82
2023-01-23T10:54:07.202Z,73.95
2023-01-23T10:55:07.079Z,73.49
2023-01-23T10:56:07.223Z,73.56
2023-01-23T10:57:07.281Z,73.82
2023-01-23T10:58:07.391Z,73.30
2023-01-23T10:59:07.475Z,73.36
2023-01-23T11:00:07.614Z,73.04
2023-01-23T11:01:07.839Z,73.11
2023-01-23T11:02:07.969Z,73.30
2023-01-23T11:03:08.146Z,73.36
2023-01-23T11:04:08.171Z,73.23
2023-01-23T11:05:08.334Z,73.04
2023-01-23T11:06:08.453Z,72.72
2023-01-23T11:07:08.540Z,72.98
2023-01-23T11:08:08.648Z,72.79
2023-01-23T11:09:08.752Z,72.91
2023-01-23T11:10:08.839Z,72.79
2023-01-23T11:11:09.038Z,72.66
2023-01-23T11:12:09.130Z,72.91
2023-01-23T11:13:09.270Z,72.98
2023-01-23T11:14:09.415Z,73.11
2023-01-23T11:15:09.565Z,72.98
2023-01-23T11:16:09.849Z,73.11
2023-01-23T11:17:09.816Z,73.17
2023-01-23T11:18:09.995Z,72.85
2023-01-23T11:19:10.110Z,72.85
2023-01-23T11:20:10.192Z,73.11
2023-01-23T11:21:10.386Z,72.98
2023-01-23T11:22:10.415Z,73.11
2023-01-23T11:23:10.536Z,73.11
2023-01-23T11:24:10.644Z,72.85
2023-01-23T11:25:10.737Z,73.23
2023-01-23T11:26:10.904Z,72.85
2023-01-23T11:27:10.987Z,72.85
2023-01-23T11:28:11.093Z,72.79
2023-01-23T11:29:11.207Z,72.79
2023-01-23T11:30:11.313Z,72.53
2023-01-23T11:31:15.421Z,72.66
2023-01-23T11:32:11.672Z,72.85
2023-01-23T11:33:11.633Z,72.98
2023-01-23T11:34:11.788Z,72.91
2023-01-23T11:35:11.921Z,73.17
2023-01-23T11:36:12.104Z,73.17
2023-01-23T11:37:12.170Z,73.30
2023-01-23T11:38:12.312Z,72.79
2023-01-23T11:39:12.452Z,72.98
2023-01-23T11:40:12.599Z,73.04
2023-01-23T11:41:12.749Z,72.85
2023-01-23T11:42:12.839Z,72.91
2023-01-23T11:43:12.992Z,73.04
2023-01-23T11:44:16.829Z,73.04
2023-01-23T11:45:14.209Z,72.72
2023-01-23T11:46:13.405Z,72.60
2023-01-23T11:47:13.483Z,72.53
2023-01-23T11:48:13.595Z,72.35
2023-01-23T11:49:13.734Z,72.35
2023-01-23T11:50:13.879Z,71.85
2023-01-23T11:51:14.116Z,72.10
2023-01-23T11:52:14.144Z,72.22
2023-01-23T11:53:14.256Z,71.97
2023-01-23T11:54:14.397Z,72.03
2023-01-23T11:55:14.503Z,71.54
2023-01-23T11:56:14.656Z,72.22
2023-01-23T11:57:14.755Z,71.79
2023-01-23T11:58:14.865Z,72.03
2023-01-23T11:59:15.018Z,71.91
2023-01-23T12:00:15.094Z,71.91
2023-01-23T12:01:15.305Z,71.85
2023-01-23T12:02:15.410Z,71.97
2023-01-23T12:03:15.506Z,72.10
2023-01-23T12:04:15.706Z,71.66
2023-01-23T12:05:15.800Z,71.48
2023-01-23T12:06:20.423Z,71.48
2023-01-23T12:07:15.984Z,71.05
2023-01-23T12:08:16.094Z,70.99
2023-01-23T12:09:16.180Z,71.17
2023-01-23T12:10:16.347Z,70.93
2023-01-23T12:11:16.474Z,71.17
2023-01-23T12:12:16.552Z,70.99
2023-01-23T12:13:16.685Z,70.81
2023-01-23T12:14:16.778Z,70.75
2023-01-23T12:15:16.876Z,70.51
2023-01-23T12:16:17.060Z,69.92
2023-01-23T12:17:17.086Z,70.45
2023-01-23T12:18:17.188Z,69.75
2023-01-23T12:19:17.317Z,70.04
2023-01-23T12:20:17.467Z,69.63
2023-01-23T12:21:17.654Z,69.75
2023-01-23T12:22:17.750Z,70.10
2023-01-23T12:23:17.850Z,69.75
2023-01-23T12:24:18.005Z,69.69
2023-01-23T12:25:18.286Z,69.92
2023-01-23T12:26:18.226Z,69.69
2023-01-23T12:27:18.318Z,69.63
2023-01-23T12:28:18.464Z,69.22
2023-01-23T12:29:18.581Z,69.51
2023-01-23T12:30:18.880Z,69.40
2023-01-23T12:31:18.860Z,68.71
2023-01-23T12:32:19.036Z,68.94
2023-01-23T12:33:19.004Z,68.65
2023-01-23T12:34:19.180Z,68.82
2023-01-23T12:35:19.274Z,68.65
2023-01-23T12:36:19.432Z,68.49
2023-01-23T12:37:29.621Z,68.77
2023-01-23T12:38:20.609Z,68.37
2023-01-23T12:39:19.674Z,68.71
2023-01-23T12:40:20.156Z,68.60
2023-01-23T12:41:19.984Z,68.71
2023-01-23T12:42:20.110Z,68.82
2023-01-23T12:43:20.220Z,68.71
2023-01-23T12:44:20.311Z,68.71
2023-01-23T12:45:20.801Z,68.54
2023-01-23T12:46:20.609Z,68.88
2023-01-23T12:47:20.680Z,68.65
2023-01-23T12:48:20.789Z,68.88
2023-01-23T12:49:20.888Z,68.49
2023-01-23T12:50:21.057Z,68.71
2023-01-23T12:51:21.226Z,68.82
2023-01-23T12:52:21.240Z,68.65
2023-01-23T12:53:21.419Z,68.49
2023-01-23T12:54:21.500Z,68.37